Time;durP1;ratioP1;P1;durP2;ratioP2;P2;SDS_P1;SDS_P2;PMS_P1;PMS_P2;Temp;Humidity;BMP_temperature;BMP_pressure;BME280_temperature;BME280_humidity;BME280_pressure;Samples;Min_cycle;Max_cycle;Signal;HPM_P1;HPM_P2
2022/09/30 00:01:39;;;;;;;0.70;0.60;;;;;;;22.22;62.12;101514.66;5017475;28;20042;-70
2022/09/30 00:04:10;;;;;;;0.75;0.60;;;;;;;22.22;62.03;101524.31;5025383;28;20415;-72
2022/09/30 00:06:40;;;;;;;0.85;0.75;;;;;;;22.16;61.87;101526.06;5023102;28;20475;-72
2022/09/30 00:09:10;;;;;;;0.90;0.60;;;;;;;22.14;59.93;101529.59;5027968;28;20050;-71
2022/09/30 00:11:39;;;;;;;1.60;0.90;;;;;;;22.13;59.96;101530.50;5025404;28;20393;-70
2022/09/30 00:14:08;;;;;;;2.15;0.88;;;;;;;22.12;63.60;101528.75;5022990;28;20074;-70
2022/09/30 00:16:38;;;;;;;0.85;0.63;;;;;;;22.09;63.18;101529.63;5024589;28;20075;-71
2022/09/30 00:19:07;;;;;;;1.52;0.70;;;;;;;22.01;61.86;101526.16;5018674;28;20050;-70
2022/09/30 00:21:35;;;;;;;1.38;0.80;;;;;;;22.03;65.21;101515.63;5022305;28;20146;-71
2022/09/30 00:24:06;;;;;;;1.25;0.80;;;;;;;22.05;63.73;101520.00;5010767;28;20083;-71
2022/09/30 00:26:36;;;;;;;0.80;0.80;;;;;;;22.04;64.41;101528.81;5031726;28;20609;-71
2022/09/30 00:29:05;;;;;;;1.00;0.80;;;;;;;22.00;62.80;101521.78;5027838;28;20044;-70
2022/09/30 00:31:35;;;;;;;1.63;0.80;;;;;;;22.02;67.00;101527.06;5026570;28;20051;-70
2022/09/30 00:34:07;;;;;;;1.35;0.90;;;;;;;22.01;65.51;101520.03;5017916;28;20049;-71
2022/09/30 00:36:38;;;;;;;0.95;0.70;;;;;;;22.03;64.75;101515.63;5017825;28;20046;-72
2022/09/30 00:39:10;;;;;;;1.13;0.70;;;;;;;22.02;61.79;101527.06;5019560;28;20137;-72
2022/09/30 00:41:39;;;;;;;1.30;0.85;;;;;;;22.03;63.92;101519.13;5016632;28;20102;-71
2022/09/30 00:44:43;;;;;;;1.00;0.60;;;;;;;22.00;65.08;101513.88;5018049;28;20054;-72
2022/09/30 00:47:40;;;;;;;2.15;0.80;;;;;;;21.96;67.54;101523.56;5020074;28;20045;-72
2022/09/30 00:50:25;;;;;;;0.77;0.75;;;;;;;21.94;66.36;101524.44;5029942;28;20041;-71
2022/09/30 00:53:00;;;;;;;0.90;0.75;;;;;;;21.85;67.66;101528.03;5021908;28;20610;-72
2022/09/30 00:55:37;;;;;;;0.80;0.60;;;;;;;21.79;61.93;101529.81;5017302;28;20042;-73
2022/09/30 00:58:09;;;;;;;0.60;0.60;;;;;;;21.70;59.70;101534.22;5022669;28;20519;-73
2022/09/30 01:00:38;;;;;;;2.35;0.70;;;;;;;21.69;65.45;101536.84;5019386;28;20057;-73
2022/09/30 01:03:08;;;;;;;1.02;0.70;;;;;;;21.68;66.38;101537.75;5022145;28;20463;-73
2022/09/30 01:05:36;;;;;;;0.85;0.60;;;;;;;21.62;61.81;101543.03;5018330;28;20088;-72
2022/09/30 01:08:09;;;;;;;1.02;0.60;;;;;;;21.56;64.20;101543.06;5012677;28;20049;-72
2022/09/30 01:10:39;;;;;;;1.05;0.60;;;;;;;21.45;65.13;101543.97;5008481;28;20053;-70
2022/09/30 01:13:08;;;;;;;0.50;0.50;;;;;;;21.41;65.60;101543.97;5002192;28;20068;-71
2022/09/30 01:16:07;;;;;;;1.67;0.57;;;;;;;21.32;66.07;101548.34;4998251;28;20046;-72
2022/09/30 01:18:49;;;;;;;0.93;0.70;;;;;;;21.26;65.09;101551.00;4994872;28;20389;-71
2022/09/30 01:21:48;;;;;;;0.70;0.52;;;;;;;21.20;65.74;101555.41;5004088;28;20401;-70
2022/09/30 01:24:54;;;;;;;1.33;0.60;;;;;;;21.16;64.95;101553.66;5002533;28;20495;-71
2022/09/30 01:27:46;;;;;;;0.85;0.50;;;;;;;21.13;65.03;101547.50;4963431;28;20047;-70
2022/09/30 01:30:20;;;;;;;1.17;0.68;;;;;;;21.10;66.33;101550.16;4999361;28;20052;-72
2022/09/30 01:33:08;;;;;;;0.85;0.60;;;;;;;21.02;65.78;101551.91;5006529;28;20060;-71
2022/09/30 01:35:52;;;;;;;1.00;0.75;;;;;;;20.96;65.99;101551.94;4997836;28;20085;-71
2022/09/30 01:38:28;;;;;;;1.73;0.80;;;;;;;20.93;66.51;101551.91;5012430;28;20520;-70
2022/09/30 01:41:06;;;;;;;2.53;1.00;;;;;;;20.89;66.31;101551.06;5001689;28;20046;-70
2022/09/30 01:43:43;;;;;;;2.33;0.80;;;;;;;20.83;69.38;101547.56;5004937;28;20500;-71
2022/09/30 01:46:20;;;;;;;1.05;0.80;;;;;;;20.75;70.93;101544.91;4999653;28;20413;-71
2022/09/30 01:48:57;;;;;;;1.27;0.77;;;;;;;20.68;69.37;101549.31;4999395;28;20725;-70
2022/09/30 01:51:31;;;;;;;1.15;0.50;;;;;;;20.60;67.60;101552.81;5008713;28;20054;-71
2022/09/30 01:54:04;;;;;;;1.15;0.70;;;;;;;20.53;68.20;101551.88;5006015;28;20049;-71
2022/09/30 01:56:40;;;;;;;1.95;0.75;;;;;;;20.42;66.88;101551.88;5002882;28;20467;-72
2022/09/30 01:59:13;;;;;;;1.05;0.60;;;;;;;20.35;67.97;101552.72;5013569;28;20137;-71
2022/09/30 02:01:47;;;;;;;0.60;0.50;;;;;;;20.27;66.86;101552.72;5010601;28;20054;-69
2022/09/30 02:04:23;;;;;;;1.27;0.73;;;;;;;20.19;66.37;101559.69;5008419;28;20077;-69
2022/09/30 02:06:56;;;;;;;0.90;0.70;;;;;;;20.13;68.68;101561.44;4997141;28;20054;-69
2022/09/30 02:09:29;;;;;;;2.40;0.88;;;;;;;20.04;66.94;101559.66;5007873;28;20416;-71
2022/09/30 02:12:04;;;;;;;0.93;0.80;;;;;;;19.98;66.38;101568.41;5018826;28;20089;-70
2022/09/30 02:14:37;;;;;;;1.27;0.68;;;;;;;19.93;66.58;101566.63;5030066;28;20049;-70
2022/09/30 02:17:14;;;;;;;1.20;0.73;;;;;;;19.90;67.78;101569.25;5027160;28;20053;-71
2022/09/30 02:19:48;;;;;;;1.42;0.75;;;;;;;19.84;68.57;101570.97;5029842;28;20088;-71
2022/09/30 02:22:20;;;;;;;1.40;0.90;;;;;;;19.78;69.05;101576.19;5027809;28;20499;-71
2022/09/30 02:24:55;;;;;;;1.25;0.85;;;;;;;19.70;68.18;101575.28;5029649;28;20407;-70
2022/09/30 02:27:27;;;;;;;1.27;0.77;;;;;;;19.63;69.40;101573.44;5027824;28;20042;-68
2022/09/30 02:29:59;;;;;;;2.00;0.82;;;;;;;19.60;69.61;101581.31;5027957;28;20099;-71
2022/09/30 02:32:32;;;;;;;1.98;0.90;;;;;;;19.51;69.50;101582.13;5028176;28;20060;-70
2022/09/30 02:35:07;;;;;;;2.63;0.80;;;;;;;19.45;69.69;101583.00;5029205;28;20045;-71
2022/09/30 02:37:38;;;;;;;1.35;0.73;;;;;;;19.40;70.45;101573.31;5028885;28;20049;-70
2022/09/30 02:40:12;;;;;;;1.00;0.80;;;;;;;19.32;70.41;101577.66;5022547;28;20061;-70
2022/09/30 02:42:43;;;;;;;1.45;0.80;;;;;;;19.23;71.27;101576.72;5030788;28;20286;-70
2022/09/30 02:45:20;;;;;;;3.03;0.82;;;;;;;19.16;73.32;101582.78;5028700;28;20524;-70
2022/09/30 02:48:06;;;;;;;2.20;1.00;;;;;;;19.11;74.56;101586.25;5024115;28;20064;-70
2022/09/30 02:50:43;;;;;;;2.95;0.80;;;;;;;19.02;73.87;101590.56;5023901;28;20054;-70
2022/09/30 02:53:26;;;;;;;2.90;1.00;;;;;;;18.97;74.58;101587.03;5025046;28;20049;-71
2022/09/30 02:56:12;;;;;;;2.45;0.98;;;;;;;18.91;74.02;101580.84;5021820;28;20053;-70
2022/09/30 02:58:42;;;;;;;1.42;1.10;;;;;;;18.83;75.15;101591.28;5021749;28;20045;-71
2022/09/30 03:01:13;;;;;;;2.10;1.30;;;;;;;18.75;76.00;101593.78;5025350;28;20045;-70
2022/09/30 03:03:44;;;;;;;1.45;1.10;;;;;;;18.69;76.61;101596.38;5017030;28;20053;-71
2022/09/30 03:06:15;;;;;;;2.55;1.05;;;;;;;18.62;77.15;101592.81;5033407;28;20049;-70
2022/09/30 03:08:44;;;;;;;3.45;0.85;;;;;;;18.55;77.33;101596.22;5030141;28;20528;-71
2022/09/30 03:11:17;;;;;;;1.58;0.93;;;;;;;18.48;78.12;101604.00;5025383;28;20604;-70
2022/09/30 03:14:28;;;;;;;1.48;1.00;;;;;;;18.37;78.64;101601.25;5029322;28;20092;-70
2022/09/30 03:17:20;;;;;;;1.83;0.93;;;;;;;18.30;80.07;101596.81;5027581;28;20049;-69
2022/09/30 03:20:15;;;;;;;2.37;0.90;;;;;;;18.27;80.91;101602.91;5026619;28;20542;-71
2022/09/30 03:23:02;;;;;;;1.80;0.85;;;;;;;18.24;80.72;101604.63;5024674;28;20045;-71
2022/09/30 03:25:41;;;;;;;1.55;0.80;;;;;;;18.14;81.25;101604.53;5021395;28;20041;-70
2022/09/30 03:28:22;;;;;;;3.53;1.00;;;;;;;18.07;81.18;101613.13;5022321;28;20057;-72
2022/09/30 03:31:02;;;;;;;1.75;0.70;;;;;;;17.99;81.44;101612.19;5027710;28;20057;-75
2022/09/30 03:33:42;;;;;;;1.08;0.73;;;;;;;17.92;81.63;101619.06;5027390;28;20054;-72
2022/09/30 03:36:19;;;;;;;1.45;0.80;;;;;;;17.88;81.79;101619.00;5023474;28;20736;-73
2022/09/30 03:39:01;;;;;;;1.30;0.70;;;;;;;17.85;81.67;101624.22;5023206;28;20547;-73
2022/09/30 03:41:35;;;;;;;0.95;0.70;;;;;;;17.80;81.40;101622.38;5029040;28;20564;-72
2022/09/30 03:44:11;;;;;;;1.60;0.80;;;;;;;17.75;81.17;101624.06;5025691;28;20739;-73
2022/09/30 03:46:43;;;;;;;0.70;0.68;;;;;;;17.68;81.89;101621.31;5026586;28;20049;-73
2022/09/30 03:49:16;;;;;;;0.95;0.70;;;;;;;17.58;81.77;101617.69;5030685;28;20042;-74
2022/09/30 03:51:45;;;;;;;1.95;1.05;;;;;;;17.53;82.39;101614.13;5028573;28;20056;-74
2022/09/30 03:54:15;;;;;;;3.00;0.90;;;;;;;17.47;84.03;101614.03;5026953;28;20041;-75
2022/09/30 03:56:44;;;;;;;1.00;0.70;;;;;;;17.41;84.13;101608.72;5025772;28;20491;-72
2022/09/30 03:59:16;;;;;;;1.65;0.82;;;;;;;17.35;84.73;101615.63;5026773;28;20051;-72
2022/09/30 04:01:45;;;;;;;1.45;0.90;;;;;;;17.34;84.08;101616.47;5021344;28;20046;-74
2022/09/30 04:04:13;;;;;;;2.65;1.42;;;;;;;17.32;84.08;101612.09;5024876;28;20042;-74
2022/09/30 04:06:42;;;;;;;3.80;1.40;;;;;;;17.29;83.76;101615.50;5026933;28;20072;-73
2022/09/30 04:09:10;;;;;;;4.82;1.55;;;;;;;17.28;84.09;101619.00;5025498;28;20414;-73
2022/09/30 04:11:41;;;;;;;2.03;1.10;;;;;;;17.28;83.48;101619.00;5027341;28;20107;-74
2022/09/30 04:14:09;;;;;;;2.03;1.10;;;;;;;17.23;83.94;101615.44;5031679;28;20072;-74
2022/09/30 04:16:38;;;;;;;1.42;0.80;;;;;;;17.20;83.94;101620.59;5016961;28;20056;-74
2022/09/30 04:19:07;;;;;;;1.40;0.98;;;;;;;17.16;83.54;101621.44;5024313;28;20802;-75
2022/09/30 04:21:35;;;;;;;4.32;1.17;;;;;;;17.13;83.62;101622.25;5024935;28;20049;-73
2022/09/30 04:24:04;;;;;;;1.50;1.10;;;;;;;17.10;84.29;101619.56;5023732;28;20050;-74
2022/09/30 04:26:32;;;;;;;2.33;1.60;;;;;;;17.07;84.00;101616.91;5021393;28;20053;-73
2022/09/30 04:29:03;;;;;;;1.17;1.00;;;;;;;17.05;84.91;101612.53;5015469;28;20049;-72
2022/09/30 04:31:31;;;;;;;1.77;0.93;;;;;;;17.03;84.68;101615.09;5022529;28;20049;-72
2022/09/30 04:34:00;;;;;;;1.52;0.80;;;;;;;17.01;84.73;101621.16;5014277;28;20123;-73
2022/09/30 04:36:28;;;;;;;1.10;0.80;;;;;;;16.96;84.28;101621.97;5013058;28;21214;-73
2022/09/30 04:38:57;;;;;;;1.90;0.90;;;;;;;16.93;84.11;101616.69;5014697;28;20050;-72
2022/09/30 04:41:25;;;;;;;1.55;1.00;;;;;;;16.93;84.20;101624.53;5022268;28;20073;-72
2022/09/30 04:43:54;;;;;;;2.05;0.90;;;;;;;16.91;84.46;101623.63;5020671;28;20060;-73
2022/09/30 04:46:24;;;;;;;0.90;0.70;;;;;;;16.89;83.93;101620.09;5009878;28;20038;-73
2022/09/30 04:48:53;;;;;;;0.85;0.60;;;;;;;16.90;83.28;101615.75;5022548;28;20049;-74
2022/09/30 04:51:22;;;;;;;1.45;0.70;;;;;;;16.85;83.19;101609.56;5023007;28;20045;-73
2022/09/30 04:53:51;;;;;;;3.35;0.90;;;;;;;16.91;83.76;101618.41;5031078;28;20050;-70
2022/09/30 04:56:19;;;;;;;1.13;0.70;;;;;;;16.89;84.02;101620.09;5008507;28;20053;-73
2022/09/30 04:58:48;;;;;;;0.70;0.50;;;;;;;16.87;83.90;101627.03;5018077;28;20105;-71
2022/09/30 05:01:18;;;;;;;0.63;0.45;;;;;;;16.88;81.00;101627.91;5007378;28;20050;-72
2022/09/30 05:03:49;;;;;;;2.65;0.50;;;;;;;16.88;80.78;101628.81;5018069;28;20041;-72
2022/09/30 05:06:18;;;;;;;3.90;0.75;;;;;;;16.91;82.33;101627.97;5022828;28;20061;-72
2022/09/30 05:08:47;;;;;;;0.90;0.70;;;;;;;16.91;81.89;101628.84;5022268;28;20045;-72
2022/09/30 05:11:18;;;;;;;0.88;0.60;;;;;;;16.90;80.50;101623.59;5026169;28;20046;-71
2022/09/30 05:13:47;;;;;;;1.15;0.80;;;;;;;16.90;81.01;101628.81;5020602;28;20089;-73
2022/09/30 05:16:16;;;;;;;1.92;0.70;;;;;;;16.90;81.48;101626.19;5021797;28;20080;-71
2022/09/30 05:18:46;;;;;;;1.08;0.60;;;;;;;16.89;81.32;101624.44;5017278;28;20060;-74
2022/09/30 05:21:17;;;;;;;1.20;0.88;;;;;;;16.89;81.47;101622.72;5024128;28;20522;-73
2022/09/30 05:23:46;;;;;;;0.88;0.80;;;;;;;16.88;78.03;101618.34;5018425;28;20584;-74
2022/09/30 05:26:14;;;;;;;2.58;0.80;;;;;;;16.89;79.40;101621.84;5023801;28;20042;-72
2022/09/30 05:28:43;;;;;;;2.42;0.60;;;;;;;16.88;78.27;101618.34;5026470;28;20052;-74
2022/09/30 05:31:12;;;;;;;1.00;0.55;;;;;;;16.87;79.42;101613.97;5027161;28;20415;-73
2022/09/30 05:33:40;;;;;;;2.38;0.80;;;;;;;16.86;79.87;101611.31;5021684;28;20067;-75
2022/09/30 05:36:12;;;;;;;3.75;0.70;;;;;;;16.82;78.20;101607.78;5025307;28;20610;-71
2022/09/30 05:38:43;;;;;;;1.60;0.40;;;;;;;16.82;76.15;101613.00;5015380;28;20471;-74
2022/09/30 05:41:13;;;;;;;1.25;0.50;;;;;;;16.84;76.66;101616.53;5020884;28;20046;-71
2022/09/30 05:43:44;;;;;;;1.35;0.40;;;;;;;16.85;74.67;101612.19;5018225;28;20049;-69
2022/09/30 05:46:12;;;;;;;1.80;0.50;;;;;;;16.86;75.09;101608.69;5020431;28;20053;-69
2022/09/30 05:48:41;;;;;;;2.15;0.60;;;;;;;16.87;74.98;101606.13;5022195;28;20042;-69
2022/09/30 05:51:10;;;;;;;1.42;0.60;;;;;;;16.88;74.68;101604.38;5024089;28;20458;-69
2022/09/30 05:53:40;;;;;;;2.90;0.52;;;;;;;16.87;73.83;101607.84;5006803;28;20049;-70
2022/09/30 05:56:11;;;;;;;1.48;0.40;;;;;;;16.87;73.73;101610.47;5026934;28;20045;-69
2022/09/30 05:58:40;;;;;;;2.47;0.97;;;;;;;16.89;74.34;101608.78;5026356;28;20060;-69
2022/09/30 06:01:11;;;;;;;0.47;0.43;;;;;;;16.90;72.82;101615.75;5027477;28;21255;-70
2022/09/30 06:03:40;;;;;;;0.38;0.30;;;;;;;16.91;73.94;101604.44;5017478;28;20053;-71
2022/09/30 06:06:09;;;;;;;0.88;0.30;;;;;;;16.92;72.66;101608.81;5018597;28;20056;-70
2022/09/30 06:08:37;;;;;;;1.85;0.45;;;;;;;16.92;72.76;101608.81;5025192;28;20492;-70
2022/09/30 06:11:12;;;;;;;1.08;0.40;;;;;;;16.91;72.59;101610.56;5012350;28;20042;-70
2022/09/30 06:13:42;;;;;;;1.50;0.70;;;;;;;16.92;72.03;101609.69;5021719;28;20114;-70
2022/09/30 06:16:11;;;;;;;1.65;0.52;;;;;;;16.93;72.61;101611.47;5003216;28;20050;-70
2022/09/30 06:18:41;;;;;;;0.80;0.50;;;;;;;16.92;71.67;101609.69;5013157;28;20050;-69
2022/09/30 06:21:12;;;;;;;3.00;0.73;;;;;;;16.90;71.45;101600.94;5028196;28;20081;-69
2022/09/30 06:23:40;;;;;;;1.55;0.52;;;;;;;16.90;71.31;101606.16;5018675;28;21194;-69
2022/09/30 06:26:12;;;;;;;1.30;0.52;;;;;;;16.92;71.49;101603.59;5020802;28;20055;-69
2022/09/30 06:28:41;;;;;;;1.03;0.57;;;;;;;16.91;71.52;101607.94;5021128;28;20112;-69
2022/09/30 06:31:10;;;;;;;6.28;1.48;;;;;;;16.90;70.26;101613.13;5020879;28;20762;-69
2022/09/30 06:33:38;;;;;;;4.57;0.63;;;;;;;16.88;69.48;101605.28;5026111;28;20049;-70
2022/09/30 06:36:07;;;;;;;1.90;0.63;;;;;;;16.89;70.43;101609.66;5026746;28;20057;-68
2022/09/30 06:38:38;;;;;;;1.75;0.55;;;;;;;16.89;69.56;101617.47;5027253;28;20049;-70
2022/09/30 06:41:08;;;;;;;3.65;0.50;;;;;;;16.88;69.89;101613.13;5022204;28;20591;-69
2022/09/30 06:43:41;;;;;;;1.95;0.73;;;;;;;16.88;71.11;101613.13;5022947;28;20053;-68
2022/09/30 06:46:11;;;;;;;2.50;0.47;;;;;;;16.85;72.25;101615.66;5023281;28;20172;-70
2022/09/30 06:48:39;;;;;;;1.30;0.50;;;;;;;16.80;71.56;101619.06;5027014;28;20050;-69
2022/09/30 06:51:09;;;;;;;1.88;0.52;;;;;;;16.74;69.91;101617.16;5014279;28;20046;-69
2022/09/30 06:53:38;;;;;;;1.35;0.50;;;;;;;16.68;69.36;101625.78;5031184;28;20053;-70
2022/09/30 06:56:07;;;;;;;2.65;0.80;;;;;;;16.66;71.21;101621.41;5021982;28;20049;-70
2022/09/30 06:58:39;;;;;;;1.73;1.02;;;;;;;16.61;71.86;101615.22;5026017;28;20507;-70
2022/09/30 07:01:08;;;;;;;2.45;0.70;;;;;;;16.57;72.80;101616.00;5028262;28;20491;-69
2022/09/30 07:03:37;;;;;;;0.57;0.40;;;;;;;16.53;72.73;101613.31;5021503;28;20061;-69
2022/09/30 07:06:07;;;;;;;1.60;0.47;;;;;;;16.53;73.54;101609.81;5023752;28;20037;-69
2022/09/30 07:08:37;;;;;;;1.10;0.70;;;;;;;16.51;73.13;101608.91;5024328;28;20430;-70
2022/09/30 07:11:10;;;;;;;2.88;0.73;;;;;;;16.48;73.21;101608.88;5020459;28;20049;-70
2022/09/30 07:13:42;;;;;;;2.58;0.60;;;;;;;16.45;73.70;101607.09;5012337;28;20779;-69
2022/09/30 07:16:12;;;;;;;2.15;0.70;;;;;;;16.41;74.57;101602.66;5005597;28;20539;-69
2022/09/30 07:18:41;;;;;;;0.65;0.60;;;;;;;16.36;77.28;101608.66;5012303;28;20057;-69
2022/09/30 07:21:12;;;;;;;0.73;0.60;;;;;;;16.30;77.53;101606.78;5006032;28;20519;-69
2022/09/30 07:23:44;;;;;;;3.75;0.60;;;;;;;16.26;78.06;101605.84;5003994;28;20060;-69
2022/09/30 07:26:13;;;;;;;0.80;0.55;;;;;;;16.19;80.13;101603.94;5016798;28;20060;-68
2022/09/30 07:28:44;;;;;;;1.45;0.50;;;;;;;16.16;78.24;101597.78;5012293;28;20547;-70
2022/09/30 07:31:14;;;;;;;3.45;0.55;;;;;;;16.12;76.77;101586.41;5004478;28;20132;-69
2022/09/30 07:33:43;;;;;;;1.55;0.68;;;;;;;16.09;76.70;101587.22;5009723;28;20047;-71
2022/09/30 07:36:16;;;;;;;1.35;0.47;;;;;;;16.04;77.07;101599.31;5009899;28;20569;-71
2022/09/30 07:38:45;;;;;;;1.45;0.60;;;;;;;15.99;76.64;101595.72;5006957;28;20049;-69
2022/09/30 07:41:16;;;;;;;3.75;0.80;;;;;;;15.90;77.92;101591.19;5010218;28;20048;-70
2022/09/30 07:43:47;;;;;;;0.35;0.30;;;;;;;15.85;79.37;101594.53;5015200;28;20107;-70
2022/09/30 07:46:19;;;;;;;1.83;0.70;;;;;;;15.81;78.05;101597.97;5005496;28;20460;-70
2022/09/30 07:48:50;;;;;;;2.22;0.77;;;;;;;15.75;78.28;101597.81;5020862;28;20079;-70
2022/09/30 07:51:20;;;;;;;0.40;0.40;;;;;;;15.69;78.36;101594.19;5007239;28;20045;-69
2022/09/30 07:53:51;;;;;;;1.02;0.40;;;;;;;15.68;80.12;101602.84;4999907;28;20061;-70
2022/09/30 07:56:20;;;;;;;2.33;0.65;;;;;;;15.63;79.01;101599.28;4998419;28;20041;-70
2022/09/30 07:58:54;;;;;;;0.38;0.38;;;;;;;15.57;79.00;101599.13;5012649;28;20045;-71
2022/09/30 08:01:24;;;;;;;5.15;1.23;;;;;;;15.53;78.78;101599.94;5004397;28;20057;-70
2022/09/30 08:03:55;;;;;;;1.20;0.47;;;;;;;15.47;78.28;101592.81;4996870;28;20496;-70
2022/09/30 08:06:24;;;;;;;1.02;0.40;;;;;;;15.41;78.09;101602.22;5004055;28;20050;-70
2022/09/30 08:08:55;;;;;;;3.80;0.52;;;;;;;15.38;79.04;101599.56;4994975;28;20054;-71
2022/09/30 08:11:24;;;;;;;0.63;0.47;;;;;;;15.36;78.92;101601.25;4987024;28;20108;-70
2022/09/30 08:13:55;;;;;;;5.78;0.75;;;;;;;15.31;80.36;101602.88;5029508;28;20130;-70
2022/09/30 08:16:25;;;;;;;0.68;0.63;;;;;;;15.27;80.25;101597.56;5027869;28;20041;-70
2022/09/30 08:18:56;;;;;;;1.08;0.43;;;;;;;15.20;80.93;101594.78;5022274;28;20053;-70
2022/09/30 08:21:25;;;;;;;3.92;0.60;;;;;;;15.14;81.55;101590.31;5027635;28;20049;-71
2022/09/30 08:23:54;;;;;;;3.10;0.88;;;;;;;15.12;81.91;101596.31;5019629;28;20050;-71
2022/09/30 08:26:23;;;;;;;1.00;0.70;;;;;;;15.09;80.89;101594.53;5019451;28;20567;-69
2022/09/30 08:28:53;;;;;;;1.38;0.70;;;;;;;15.05;81.83;101598.78;5023061;28;20076;-69
2022/09/30 08:31:24;;;;;;;8.25;0.77;;;;;;;14.99;81.84;101601.25;5012384;28;20041;-70
2022/09/30 08:33:53;;;;;;;0.85;0.43;;;;;;;14.97;81.71;101599.44;5022862;28;20694;-71
2022/09/30 08:36:24;;;;;;;2.95;0.73;;;;;;;14.95;81.50;101598.53;5018369;28;20052;-69
2022/09/30 08:38:59;;;;;;;0.70;0.55;;;;;;;14.86;80.96;101607.84;5011983;28;20313;-70
2022/09/30 08:41:53;;;;;;;2.00;0.70;;;;;;;14.77;81.87;101604.13;5025424;28;20103;-70
2022/09/30 08:44:48;;;;;;;4.93;0.70;;;;;;;14.72;82.34;101606.63;5023937;28;20076;-71
2022/09/30 08:47:33;;;;;;;1.30;0.68;;;;;;;14.68;82.56;101614.31;5017973;28;20046;-70
2022/09/30 08:50:11;;;;;;;1.77;0.50;;;;;;;14.67;82.41;101618.66;5022842;28;20049;-69
2022/09/30 08:52:42;;;;;;;2.95;0.68;;;;;;;14.63;82.60;101622.00;5020369;28;20503;-70
2022/09/30 08:55:21;;;;;;;1.70;0.63;;;;;;;14.59;82.26;101631.47;5018980;28;20045;-70
2022/09/30 08:57:50;;;;;;;2.60;0.75;;;;;;;14.55;82.07;101628.75;5021828;28;20058;-69
2022/09/30 09:00:22;;;;;;;1.40;0.40;;;;;;;14.50;82.52;101631.19;5024588;28;20064;-70
2022/09/30 09:02:53;;;;;;;0.60;0.50;;;;;;;14.46;82.28;101635.44;5025469;28;20105;-69
2022/09/30 09:05:37;;;;;;;0.53;0.43;;;;;;;14.42;82.48;101633.56;5022071;28;20126;-70
2022/09/30 09:08:15;;;;;;;0.52;0.52;;;;;;;14.40;82.83;101635.25;5026012;28;20679;-69
2022/09/30 09:10:47;;;;;;;1.58;0.52;;;;;;;14.35;83.15;101634.25;5023267;28;20045;-70
2022/09/30 09:13:36;;;;;;;1.07;0.40;;;;;;;14.31;83.23;101640.19;5027795;28;20075;-69
2022/09/30 09:16:13;;;;;;;1.00;0.50;;;;;;;14.25;84.47;101638.31;5021608;28;20148;-69
2022/09/30 09:18:52;;;;;;;2.33;0.50;;;;;;;14.24;84.83;101639.13;5016651;28;20045;-69
2022/09/30 09:21:27;;;;;;;2.80;0.68;;;;;;;14.21;85.91;101643.41;5028793;28;20060;-69
2022/09/30 09:24:01;;;;;;;1.10;0.40;;;;;;;14.12;86.20;101631.00;5026336;28;20042;-69
2022/09/30 09:26:35;;;;;;;1.52;0.45;;;;;;;14.12;87.76;101640.53;5025017;28;20053;-70
2022/09/30 09:29:21;;;;;;;2.90;0.80;;;;;;;14.11;87.78;101641.34;5027580;28;20636;-70
2022/09/30 09:31:51;;;;;;;2.50;0.70;;;;;;;14.09;86.58;101640.41;5024280;28;20041;-70
2022/09/30 09:34:19;;;;;;;1.38;0.70;;;;;;;14.07;86.35;101636.91;5018554;28;20057;-70
2022/09/30 09:37:03;;;;;;;4.57;0.73;;;;;;;14.04;84.85;101638.59;5021137;28;20049;-70
2022/09/30 09:40:00;;;;;;;1.58;0.50;;;;;;;13.94;84.90;101639.13;5024134;28;20053;-71
2022/09/30 09:42:44;;;;;;;1.52;0.60;;;;;;;13.91;85.89;101639.06;5018776;28;20569;-68
2022/09/30 09:45:23;;;;;;;1.30;0.60;;;;;;;13.93;85.88;101636.50;5017091;28;20511;-70
2022/09/30 09:47:56;;;;;;;1.92;0.80;;;;;;;13.90;85.55;101634.66;5022658;28;20068;-69
2022/09/30 09:50:32;;;;;;;2.60;0.70;;;;;;;13.86;86.74;101643.25;5019377;28;20076;-70
2022/09/30 09:53:30;;;;;;;1.83;0.68;;;;;;;13.84;85.51;101644.91;5026799;28;20049;-70
2022/09/30 09:55:59;;;;;;;2.90;0.45;;;;;;;13.82;85.71;101643.97;4999012;28;20056;-70
2022/09/30 09:58:28;;;;;;;4.65;1.20;;;;;;;13.75;86.41;101636.84;5019698;28;20042;-70
2022/09/30 10:01:31;;;;;;;1.48;0.55;;;;;;;13.78;85.44;101647.31;5020068;28;20051;-70
2022/09/30 10:04:17;;;;;;;0.73;0.60;;;;;;;13.74;85.69;101641.16;5023633;28;20084;-70
2022/09/30 10:06:52;;;;;;;1.65;0.52;;;;;;;13.73;86.41;101644.56;5032311;28;20053;-69
2022/09/30 10:09:29;;;;;;;0.70;0.60;;;;;;;13.73;86.17;101646.31;5015258;28;20042;-71
2022/09/30 10:12:25;;;;;;;2.15;0.45;;;;;;;13.71;87.06;101647.97;5036891;28;20053;-70
2022/09/30 10:14:59;;;;;;;1.58;0.70;;;;;;;13.67;87.09;101644.38;5017309;28;20057;-71
2022/09/30 10:17:30;;;;;;;1.92;0.75;;;;;;;13.65;87.86;101643.44;5025858;28;20046;-70
2022/09/30 10:20:08;;;;;;;6.43;0.80;;;;;;;13.66;88.09;101646.94;5018981;28;20056;-71
2022/09/30 10:22:37;;;;;;;1.40;0.40;;;;;;;13.62;86.47;101641.63;5029634;28;20056;-70
2022/09/30 10:25:27;;;;;;;1.35;0.95;;;;;;;13.57;87.19;101643.22;5032995;28;20056;-71
2022/09/30 10:27:58;;;;;;;0.65;0.50;;;;;;;13.52;87.62;101636.13;5019739;28;20057;-72
2022/09/30 10:30:38;;;;;;;1.13;0.63;;;;;;;13.50;88.70;101638.66;5029117;28;20626;-70
2022/09/30 10:33:21;;;;;;;1.48;0.80;;;;;;;13.50;89.14;101641.25;5029400;28;20057;-70
2022/09/30 10:36:07;;;;;;;1.73;0.63;;;;;;;13.49;89.73;101644.72;5028776;28;20561;-71
2022/09/30 10:38:37;;;;;;;3.75;1.10;;;;;;;13.49;90.26;101644.72;5022849;28;20054;-70
2022/09/30 10:41:06;;;;;;;1.45;0.70;;;;;;;13.48;89.72;101636.84;5021175;28;20462;-70
2022/09/30 10:43:40;;;;;;;1.15;0.82;;;;;;;13.45;90.16;101642.84;5028529;28;20529;-70
2022/09/30 10:46:09;;;;;;;1.25;0.60;;;;;;;13.43;90.57;101639.31;5019753;28;20514;-70
2022/09/30 10:48:41;;;;;;;0.77;0.50;;;;;;;13.43;90.84;101631.50;5025538;28;20049;-70
2022/09/30 10:51:25;;;;;;;3.92;0.80;;;;;;;13.44;91.56;101640.19;5019569;28;20053;-70
2022/09/30 10:53:54;;;;;;;1.10;0.68;;;;;;;13.42;91.72;101632.31;5028538;28;20471;-71
2022/09/30 10:56:38;;;;;;;1.60;0.95;;;;;;;13.43;91.71;101633.22;5026619;28;20045;-70
2022/09/30 10:59:15;;;;;;;2.40;0.68;;;;;;;13.40;91.11;101634.03;5029400;28;20570;-71
2022/09/30 11:01:50;;;;;;;3.10;0.80;;;;;;;13.40;91.55;101636.63;5026232;28;20056;-70
2022/09/30 11:04:26;;;;;;;3.15;0.60;;;;;;;13.37;90.39;101628.69;5039636;28;20533;-70
2022/09/30 11:07:02;;;;;;;1.48;0.70;;;;;;;13.36;90.40;101637.34;5039948;28;20053;-70
2022/09/30 11:09:37;;;;;;;1.90;1.00;;;;;;;13.34;90.20;101634.69;5025558;28;20052;-70
2022/09/30 11:12:15;;;;;;;1.02;0.40;;;;;;;13.32;90.67;101638.06;5024903;28;20054;-70
2022/09/30 11:14:50;;;;;;;2.80;0.70;;;;;;;13.32;90.93;101628.56;4990780;28;20062;-70
2022/09/30 11:17:29;;;;;;;1.52;0.80;;;;;;;13.33;90.27;101632.03;5003384;28;20687;-70
2022/09/30 11:20:13;;;;;;;2.42;0.80;;;;;;;13.31;90.68;101633.69;5017259;28;20054;-70
2022/09/30 11:22:52;;;;;;;2.30;0.90;;;;;;;13.30;92.08;101643.22;5007462;28;20054;-69
2022/09/30 11:25:26;;;;;;;0.85;0.50;;;;;;;13.31;92.41;101633.69;5013604;28;20045;-70
2022/09/30 11:28:08;;;;;;;1.00;0.60;;;;;;;13.32;91.64;101635.47;5007788;28;20057;-70
2022/09/30 11:30:45;;;;;;;1.83;0.57;;;;;;;13.31;91.98;101626.81;4993146;28;20080;-70
2022/09/30 11:33:35;;;;;;;1.27;0.80;;;;;;;13.31;91.49;101624.19;5004447;28;20053;-69
2022/09/30 11:36:12;;;;;;;2.10;0.70;;;;;;;13.24;92.88;101621.31;5001759;28;20499;-69
2022/09/30 11:39:03;;;;;;;5.53;0.98;;;;;;;13.17;93.54;101621.13;5002199;28;20050;-69
2022/09/30 11:41:35;;;;;;;1.50;0.60;;;;;;;13.17;94.78;101621.13;5007076;28;20053;-70
2022/09/30 11:44:17;;;;;;;3.35;0.73;;;;;;;13.18;94.90;101622.88;5004017;28;20161;-70
2022/09/30 11:47:02;;;;;;;1.00;0.77;;;;;;;13.18;93.50;101612.47;5016608;28;20079;-70
2022/09/30 11:49:52;;;;;;;1.55;0.50;;;;;;;13.17;92.92;101615.94;4999711;28;20492;-70
2022/09/30 11:52:28;;;;;;;1.17;0.75;;;;;;;13.18;93.62;101611.59;5010950;28;20064;-68
2022/09/30 11:55:15;;;;;;;2.35;0.90;;;;;;;13.16;94.54;101603.75;5013539;28;20539;-70
2022/09/30 11:57:51;;;;;;;0.68;0.40;;;;;;;13.19;93.68;101605.56;5007703;28;20050;-70